Sargodha, Pakistan
Current Conditions -  °F | °C
As of 2:25 AM on Friday 24 Oct 2014 (Local Time) from OPLA Reporting Station
Smoke Smoke  
Wind Chill: 72°   Ceiling: Unl
Heat Index: 72°   Visibility: 2.5mi
Dew Point: 63°   Wind: 3mph
Humidity: 73%   Direction: 30°NNE
Pressure: 29.91"   Gusts: NA
Location:  32.08°N, 72.67°E
Report Text: OPLA 232125Z 03003KT 4000 FU NSC 22/17 Q1013
Loading
Personal Weather Stations






























Interactive Weather Map
Tropical Storm Tracking
New forecast layout! Learn more

10-Day Weather Forecast

Advertisements
Track Severe Weather on mobile